Bodinumu Airport

METAR AYPY TAF AYPY
32 °C
°C
-
°C
45m
Âge
05:45:22
LT
04:45
UTC
0 ft

1.000

2.000

3.000

4.000

5.000

SCT 3.000
VFR
<?= Yii::t('app', 'Wind direction') ?> <?= Yii::t('app', 'of'); ?>
200°
18:40
Coucher de soleil
67%
Humidité
Cisaillement du vent
Fermé/neige
Portée visuelle RWY
Condition RWY
Visibilité vert.
Visibilité min.
CAVOK
Tendance
Correction
Rapport spécial
1003 hPa
QNH
METAR AYPY 280400Z 20010KT 9999 SCT030 32/25 Q1003
épars
0 kt
0 kt
14:00
MVFR
8 kt
15:00
MVFR
8 kt
16:00
MVFR
8 kt
17:00
MVFR
8 kt
18:00
MVFR
8 kt
19:00
MVFR
8 kt
20:00
VFR
8 kt
10 km+
Vue
Non
Base cloud
10 kt
Vent
metar-taf.com/BNM

Metar-Taf.com

Décodeur visuel

Nous et des tiers suivons ton comportement Internet sur notre site Web à l'aide de cookies. Si tu continues, nous supposons que tu es d'accord avec notre Politique en matière de cookies.